sensor_id;sensor_type;location;lat;lon;timestamp;pressure;altitude;pressure_sealevel;temperature;humidity
9969;BME280;5025;48.890;9.278;2022-11-20T00:00:45;98309.63;;;5.65;87.05
9969;BME280;5025;48.890;9.278;2022-11-20T00:03:11;98307.78;;;5.66;87.15
9969;BME280;5025;48.890;9.278;2022-11-20T00:05:37;98310.25;;;5.67;86.87
9969;BME280;5025;48.890;9.278;2022-11-20T00:08:02;98307.78;;;5.66;86.86
9969;BME280;5025;48.890;9.278;2022-11-20T00:10:27;98299.97;;;5.64;87.03
9969;BME280;5025;48.890;9.278;2022-11-20T00:12:53;98309.81;;;5.64;87.02
9969;BME280;5025;48.890;9.278;2022-11-20T00:15:18;98304.47;;;5.64;86.95
9969;BME280;5025;48.890;9.278;2022-11-20T00:17:43;98309.81;;;5.64;87.04
9969;BME280;5025;48.890;9.278;2022-11-20T00:20:09;98303.66;;;5.63;87.03
9969;BME280;5025;48.890;9.278;2022-11-20T00:22:35;98313.97;;;5.66;87.21
9969;BME280;5025;48.890;9.278;2022-11-20T00:25:00;98298.09;;;5.65;86.98
9969;BME280;5025;48.890;9.278;2022-11-20T00:27:25;98304.47;;;5.64;87.21
9969;BME280;5025;48.890;9.278;2022-11-20T00:29:51;98298.50;;;5.62;87.15
9969;BME280;5025;48.890;9.278;2022-11-20T00:32:16;98297.06;;;5.59;87.07
9969;BME280;5025;48.890;9.278;2022-11-20T00:34:41;98301.81;;;5.57;87.38
9969;BME280;5025;48.890;9.278;2022-11-20T00:37:07;98298.75;;;5.53;87.35
9969;BME280;5025;48.890;9.278;2022-11-20T00:39:32;98303.25;;;5.46;87.39
9969;BME280;5025;48.890;9.278;2022-11-20T00:41:57;98305.13;;;5.46;87.59
9969;BME280;5025;48.890;9.278;2022-11-20T00:44:23;98297.31;;;5.44;87.60
9969;BME280;5025;48.890;9.278;2022-11-20T00:46:48;98295.84;;;5.42;87.65
9969;BME280;5025;48.890;9.278;2022-11-20T00:49:13;98305.53;;;5.43;87.68
9969;BME280;5025;48.890;9.278;2022-11-20T00:51:38;98302.22;;;5.41;87.69
9969;BME280;5025;48.890;9.278;2022-11-20T00:54:04;98306.56;;;5.42;87.77
9969;BME280;5025;48.890;9.278;2022-11-20T00:56:29;98307.38;;;5.42;87.63
9969;BME280;5025;48.890;9.278;2022-11-20T00:58:55;98303.06;;;5.41;87.62
9969;BME280;5025;48.890;9.278;2022-11-20T01:01:23;98305.13;;;5.39;87.72
9969;BME280;5025;48.890;9.278;2022-11-20T01:03:52;98305.13;;;5.39;87.79
9969;BME280;5025;48.890;9.278;2022-11-20T01:06:32;98307.59;;;5.41;87.74
9969;BME280;5025;48.890;9.278;2022-11-20T01:09:01;98314.38;;;5.43;87.83
9969;BME280;5025;48.890;9.278;2022-11-20T01:11:29;98316.88;;;5.45;87.91
9969;BME280;5025;48.890;9.278;2022-11-20T01:13:56;98312.31;;;5.45;87.73
9969;BME280;5025;48.890;9.278;2022-11-20T01:16:27;98314.78;;;5.47;87.88
9969;BME280;5025;48.890;9.278;2022-11-20T01:18:56;98313.78;;;5.48;87.88
9969;BME280;5025;48.890;9.278;2022-11-20T01:21:24;98319.72;;;5.50;87.64
9969;BME280;5025;48.890;9.278;2022-11-20T01:23:50;98317.69;;;5.52;88.00
9969;BME280;5025;48.890;9.278;2022-11-20T01:26:24;98317.47;;;5.53;87.82
9969;BME280;5025;48.890;9.278;2022-11-20T01:28:50;98313.97;;;5.53;87.75
9969;BME280;5025;48.890;9.278;2022-11-20T01:31:22;98321.78;;;5.54;87.88
9969;BME280;5025;48.890;9.278;2022-11-20T01:33:49;98322.84;;;5.53;87.80
9969;BME280;5025;48.890;9.278;2022-11-20T01:36:16;98327.34;;;5.53;87.75
9969;BME280;5025;48.890;9.278;2022-11-20T01:38:42;98323.03;;;5.52;88.11
9969;BME280;5025;48.890;9.278;2022-11-20T01:41:08;98324.88;;;5.51;88.03
9969;BME280;5025;48.890;9.278;2022-11-20T01:43:34;98317.69;;;5.52;87.86
9969;BME280;5025;48.890;9.278;2022-11-20T01:46:08;98320.56;;;5.50;87.91
9969;BME280;5025;48.890;9.278;2022-11-20T01:51:20;98323.66;;;5.47;88.03
9969;BME280;5025;48.890;9.278;2022-11-20T01:53:48;98319.34;;;5.46;88.21
9969;BME280;5025;48.890;9.278;2022-11-20T01:56:14;98322.00;;;5.46;88.22
9969;BME280;5025;48.890;9.278;2022-11-20T01:58:45;98312.13;;;5.40;88.11
9969;BME280;5025;48.890;9.278;2022-11-20T02:01:13;98305.75;;;5.41;88.48
9969;BME280;5025;48.890;9.278;2022-11-20T02:03:39;98308.22;;;5.43;88.48
9969;BME280;5025;48.890;9.278;2022-11-20T02:06:10;98307.59;;;5.41;88.53
9969;BME280;5025;48.890;9.278;2022-11-20T02:08:38;98312.13;;;5.40;88.64
9969;BME280;5025;48.890;9.278;2022-11-20T02:11:03;98307.38;;;5.42;88.70
9969;BME280;5025;48.890;9.278;2022-11-20T02:13:29;98318.50;;;5.39;88.46
9969;BME280;5025;48.890;9.278;2022-11-20T02:16:31;98315.63;;;5.34;88.90
9969;BME280;5025;48.890;9.278;2022-11-20T02:19:00;98316.44;;;5.34;88.78
9969;BME280;5025;48.890;9.278;2022-11-20T02:24:10;98312.94;;;5.34;89.14
9969;BME280;5025;48.890;9.278;2022-11-20T02:26:50;98312.75;;;5.35;89.36
9969;BME280;5025;48.890;9.278;2022-11-20T02:29:23;98305.72;;;5.34;88.98
9969;BME280;5025;48.890;9.278;2022-11-20T02:31:50;98306.16;;;5.31;89.11
9969;BME280;5025;48.890;9.278;2022-11-20T02:34:15;98311.28;;;5.33;89.17
9969;BME280;5025;48.890;9.278;2022-11-20T02:36:41;98304.53;;;5.30;89.36
9969;BME280;5025;48.890;9.278;2022-11-20T02:39:08;98307.41;;;5.29;89.46
9969;BME280;5025;48.890;9.278;2022-11-20T02:41:36;98312.13;;;5.33;89.51
9969;BME280;5025;48.890;9.278;2022-11-20T02:44:03;98303.69;;;5.36;89.55
9969;BME280;5025;48.890;9.278;2022-11-20T02:46:28;98308.84;;;5.38;89.42
9969;BME280;5025;48.890;9.278;2022-11-20T02:48:54;98312.34;;;5.38;89.41
9969;BME280;5025;48.890;9.278;2022-11-20T02:51:19;98309.66;;;5.38;89.59
9969;BME280;5025;48.890;9.278;2022-11-20T02:53:45;98308.84;;;5.38;89.74
9969;BME280;5025;48.890;9.278;2022-11-20T02:56:10;98308.22;;;5.36;89.53
9969;BME280;5025;48.890;9.278;2022-11-20T02:58:35;98310.88;;;5.36;89.82
9969;BME280;5025;48.890;9.278;2022-11-20T03:01:01;98313.56;;;5.36;89.69
9969;BME280;5025;48.890;9.278;2022-11-20T03:03:26;98308.41;;;5.34;89.74
9969;BME280;5025;48.890;9.278;2022-11-20T03:05:51;98302.06;;;5.29;89.94
9969;BME280;5025;48.890;9.278;2022-11-20T03:08:16;98303.69;;;5.30;89.97
9969;BME280;5025;48.890;9.278;2022-11-20T03:10:42;98302.66;;;5.31;90.09
9969;BME280;5025;48.890;9.278;2022-11-20T03:13:07;98303.06;;;5.28;90.35
9969;BME280;5025;48.890;9.278;2022-11-20T03:15:32;98302.06;;;5.29;90.49
9969;BME280;5025;48.890;9.278;2022-11-20T03:17:58;98302.06;;;5.29;90.43
9969;BME280;5025;48.890;9.278;2022-11-20T03:20:23;98304.53;;;5.30;90.36
9969;BME280;5025;48.890;9.278;2022-11-20T03:22:48;98295.03;;;5.28;90.41
9969;BME280;5025;48.890;9.278;2022-11-20T03:25:14;98304.13;;;5.27;90.60
9969;BME280;5025;48.890;9.278;2022-11-20T03:27:39;98302.88;;;5.29;90.79
9969;BME280;5025;48.890;9.278;2022-11-20T03:30:05;98301.63;;;5.32;90.82
9969;BME280;5025;48.890;9.278;2022-11-20T03:32:31;98288.03;;;5.33;90.67
9969;BME280;5025;48.890;9.278;2022-11-20T03:34:56;98288.66;;;5.35;90.74
9969;BME280;5025;48.890;9.278;2022-11-20T03:37:21;98283.91;;;5.37;90.70
9969;BME280;5025;48.890;9.278;2022-11-20T03:39:47;98294.22;;;5.34;90.66
9969;BME280;5025;48.890;9.278;2022-11-20T03:42:12;98289.66;;;5.34;90.90
9969;BME280;5025;48.890;9.278;2022-11-20T03:44:56;98283.50;;;5.34;90.98
9969;BME280;5025;48.890;9.278;2022-11-20T03:47:21;98287.00;;;5.34;91.10
9969;BME280;5025;48.890;9.278;2022-11-20T03:49:46;98287.63;;;5.36;91.14
9969;BME280;5025;48.890;9.278;2022-11-20T03:52:12;98287.63;;;5.36;91.28
9969;BME280;5025;48.890;9.278;2022-11-20T03:54:37;98286.78;;;5.36;91.37
9969;BME280;5025;48.890;9.278;2022-11-20T03:57:02;98284.53;;;5.39;91.18
9969;BME280;5025;48.890;9.278;2022-11-20T03:59:27;98284.34;;;5.41;91.34
9969;BME280;5025;48.890;9.278;2022-11-20T04:01:53;98282.06;;;5.45;90.94
9969;BME280;5025;48.890;9.278;2022-11-20T04:04:18;98287.63;;;5.43;90.98
9969;BME280;5025;48.890;9.278;2022-11-20T04:06:43;98285.53;;;5.45;91.09
9969;BME280;5025;48.890;9.278;2022-11-20T04:09:09;98285.16;;;5.42;91.20
9969;BME280;5025;48.890;9.278;2022-11-20T04:11:36;98288.63;;;5.42;91.30
9969;BME280;5025;48.890;9.278;2022-11-20T04:14:06;98292.16;;;5.43;91.33
9969;BME280;5025;48.890;9.278;2022-11-20T04:16:34;98286.81;;;5.43;91.34
9969;BME280;5025;48.890;9.278;2022-11-20T04:19:03;98283.91;;;5.44;91.46
9969;BME280;5025;48.890;9.278;2022-11-20T04:21:29;98283.50;;;5.47;91.32
9969;BME280;5025;48.890;9.278;2022-11-20T04:23:55;98282.66;;;5.47;91.25
9969;BME280;5025;48.890;9.278;2022-11-20T04:26:21;98281.03;;;5.46;91.16
9969;BME280;5025;48.890;9.278;2022-11-20T04:28:47;98286.78;;;5.49;91.25
9969;BME280;5025;48.890;9.278;2022-11-20T04:31:17;98283.72;;;5.46;91.17
9969;BME280;5025;48.890;9.278;2022-11-20T04:33:43;98281.44;;;5.43;91.06
9969;BME280;5025;48.890;9.278;2022-11-20T04:36:16;98287.63;;;5.43;91.09
9969;BME280;5025;48.890;9.278;2022-11-20T04:38:42;98286.59;;;5.44;91.23
9969;BME280;5025;48.890;9.278;2022-11-20T04:41:10;98285.13;;;5.48;91.10
9969;BME280;5025;48.890;9.278;2022-11-20T04:43:37;98287.81;;;5.55;90.90
9969;BME280;5025;48.890;9.278;2022-11-20T04:46:02;98288.41;;;5.57;90.83
9969;BME280;5025;48.890;9.278;2022-11-20T04:48:28;98281.84;;;5.60;90.76
9969;BME280;5025;48.890;9.278;2022-11-20T04:50:54;98286.13;;;5.61;90.60
9969;BME280;5025;48.890;9.278;2022-11-20T04:53:20;98288.81;;;5.61;90.39
9969;BME280;5025;48.890;9.278;2022-11-20T04:55:46;98285.50;;;5.65;90.14
9969;BME280;5025;48.890;9.278;2022-11-20T04:58:11;98278.53;;;5.64;90.05
9969;BME280;5025;48.890;9.278;2022-11-20T05:00:37;98287.19;;;5.60;90.11
9969;BME280;5025;48.890;9.278;2022-11-20T05:03:03;98278.94;;;5.61;90.12
9969;BME280;5025;48.890;9.278;2022-11-20T05:05:28;98282.03;;;5.65;90.06
9969;BME280;5025;48.890;9.278;2022-11-20T05:07:56;98273.97;;;5.65;89.87
9969;BME280;5025;48.890;9.278;2022-11-20T05:10:23;98270.69;;;5.69;89.95
9969;BME280;5025;48.890;9.278;2022-11-20T05:12:48;98278.50;;;5.71;89.80
9969;BME280;5025;48.890;9.278;2022-11-20T05:15:13;98272.94;;;5.72;89.48
9969;BME280;5025;48.890;9.278;2022-11-20T05:17:39;98275.63;;;5.72;89.49
9969;BME280;5025;48.890;9.278;2022-11-20T05:20:04;98271.06;;;5.73;89.50
9969;BME280;5025;48.890;9.278;2022-11-20T05:22:30;98279.31;;;5.71;89.47
9969;BME280;5025;48.890;9.278;2022-11-20T05:24:55;98277.28;;;5.73;89.48
9969;BME280;5025;48.890;9.278;2022-11-20T05:27:20;98280.75;;;5.74;89.32
9969;BME280;5025;48.890;9.278;2022-11-20T05:29:45;98278.69;;;5.76;89.15
9969;BME280;5025;48.890;9.278;2022-11-20T05:32:11;98281.16;;;5.78;89.12
9969;BME280;5025;48.890;9.278;2022-11-20T05:34:36;98282.22;;;5.77;89.15
9969;BME280;5025;48.890;9.278;2022-11-20T05:37:02;98284.88;;;5.77;89.18
9969;BME280;5025;48.890;9.278;2022-11-20T05:39:28;98281.38;;;5.76;88.85
9969;BME280;5025;48.890;9.278;2022-11-20T05:41:53;98283.03;;;5.77;88.84
9969;BME280;5025;48.890;9.278;2022-11-20T05:44:38;98276.44;;;5.73;88.83
9969;BME280;5025;48.890;9.278;2022-11-20T05:47:04;98275.63;;;5.72;88.90
9969;BME280;5025;48.890;9.278;2022-11-20T05:49:30;98277.69;;;5.70;88.63
9969;BME280;5025;48.890;9.278;2022-11-20T05:51:55;98267.19;;;5.69;88.84
9969;BME280;5025;48.890;9.278;2022-11-20T05:54:20;98270.69;;;5.69;88.76
9969;BME280;5025;48.890;9.278;2022-11-20T05:56:45;98275.22;;;5.69;88.63
9969;BME280;5025;48.890;9.278;2022-11-20T05:59:11;98273.34;;;5.69;88.97
9969;BME280;5025;48.890;9.278;2022-11-20T06:01:36;98270.47;;;5.71;88.55
9969;BME280;5025;48.890;9.278;2022-11-20T06:04:02;98271.50;;;5.70;88.38
9969;BME280;5025;48.890;9.278;2022-11-20T06:06:27;98267.78;;;5.71;88.36
9969;BME280;5025;48.890;9.278;2022-11-20T06:08:54;98265.72;;;5.73;88.36
9969;BME280;5025;48.890;9.278;2022-11-20T06:11:20;98273.53;;;5.74;88.35
9969;BME280;5025;48.890;9.278;2022-11-20T06:13:46;98266.13;;;5.77;88.03
9969;BME280;5025;48.890;9.278;2022-11-20T06:16:13;98275.19;;;5.75;88.03
9969;BME280;5025;48.890;9.278;2022-11-20T06:18:40;98269.84;;;5.75;87.98
9969;BME280;5025;48.890;9.278;2022-11-20T06:21:16;98276.84;;;5.77;87.92
9969;BME280;5025;48.890;9.278;2022-11-20T06:23:42;98271.88;;;5.80;87.85
9969;BME280;5025;48.890;9.278;2022-11-20T06:26:10;98272.31;;;5.77;87.86
9969;BME280;5025;48.890;9.278;2022-11-20T06:28:37;98262.81;;;5.74;87.89
9969;BME280;5025;48.890;9.278;2022-11-20T06:31:03;98276.63;;;5.71;87.91
9969;BME280;5025;48.890;9.278;2022-11-20T06:33:29;98263.03;;;5.73;87.93
9969;BME280;5025;48.890;9.278;2022-11-20T06:35:58;98262.84;;;5.68;87.75
9969;BME280;5025;48.890;9.278;2022-11-20T06:38:25;98262.63;;;5.69;87.86
9969;BME280;5025;48.890;9.278;2022-11-20T06:40:50;98269.03;;;5.68;87.76
9969;BME280;5025;48.890;9.278;2022-11-20T06:43:15;98267.78;;;5.71;87.69
9969;BME280;5025;48.890;9.278;2022-11-20T06:45:41;98272.13;;;5.72;87.52
9969;BME280;5025;48.890;9.278;2022-11-20T06:48:06;98270.84;;;5.74;87.56
9969;BME280;5025;48.890;9.278;2022-11-20T06:50:32;98276.22;;;5.74;87.34
9969;BME280;5025;48.890;9.278;2022-11-20T06:53:00;98267.97;;;5.76;87.42
9969;BME280;5025;48.890;9.278;2022-11-20T06:55:26;98269.03;;;5.75;87.37
9969;BME280;5025;48.890;9.278;2022-11-20T06:57:51;98267.97;;;5.76;87.24
9969;BME280;5025;48.890;9.278;2022-11-20T07:00:16;98266.13;;;5.77;87.18
9969;BME280;5025;48.890;9.278;2022-11-20T07:02:41;98267.53;;;5.79;87.20
9969;BME280;5025;48.890;9.278;2022-11-20T07:05:07;98271.06;;;5.80;87.23
9969;BME280;5025;48.890;9.278;2022-11-20T07:07:32;98270.03;;;5.81;86.93
9969;BME280;5025;48.890;9.278;2022-11-20T07:09:57;98266.53;;;5.80;87.23
9969;BME280;5025;48.890;9.278;2022-11-20T07:12:23;98277.03;;;5.82;87.23
9969;BME280;5025;48.890;9.278;2022-11-20T07:14:48;98271.66;;;5.82;86.96
9969;BME280;5025;48.890;9.278;2022-11-20T07:17:13;98274.94;;;5.84;86.99
9969;BME280;5025;48.890;9.278;2022-11-20T07:19:39;98285.88;;;5.89;86.71
9969;BME280;5025;48.890;9.278;2022-11-20T07:22:04;98287.13;;;5.86;86.77
9969;BME280;5025;48.890;9.278;2022-11-20T07:24:29;98286.50;;;5.91;86.52
9969;BME280;5025;48.890;9.278;2022-11-20T07:26:55;98289.97;;;5.91;86.37
9969;BME280;5025;48.890;9.278;2022-11-20T07:29:20;98291.63;;;5.92;86.43
9969;BME280;5025;48.890;9.278;2022-11-20T07:31:45;98289.56;;;5.95;86.35
9969;BME280;5025;48.890;9.278;2022-11-20T07:34:11;98279.69;;;5.95;86.25
9969;BME280;5025;48.890;9.278;2022-11-20T07:36:36;98292.25;;;5.95;86.02
9969;BME280;5025;48.890;9.278;2022-11-20T07:39:02;98287.94;;;5.93;86.30
9969;BME280;5025;48.890;9.278;2022-11-20T07:41:27;98293.28;;;5.93;86.33
9969;BME280;5025;48.890;9.278;2022-11-20T07:43:52;98299.47;;;5.94;86.23
9969;BME280;5025;48.890;9.278;2022-11-20T07:46:18;98300.06;;;5.96;86.19
9969;BME280;5025;48.890;9.278;2022-11-20T07:48:43;98295.59;;;5.97;86.30
9969;BME280;5025;48.890;9.278;2022-11-20T07:51:08;98294.91;;;5.95;86.22
9969;BME280;5025;48.890;9.278;2022-11-20T07:53:33;98292.91;;;5.97;86.30
9969;BME280;5025;48.890;9.278;2022-11-20T07:56:00;98298.66;;;6.00;86.14
9969;BME280;5025;48.890;9.278;2022-11-20T07:58:26;98293.91;;;6.02;86.10
9969;BME280;5025;48.890;9.278;2022-11-20T08:00:51;98298.84;;;6.05;86.06
9969;BME280;5025;48.890;9.278;2022-11-20T08:03:16;98303.97;;;6.07;86.03
9969;BME280;5025;48.890;9.278;2022-11-20T08:05:42;98298.63;;;6.07;85.96
9969;BME280;5025;48.890;9.278;2022-11-20T08:08:07;98301.94;;;6.09;86.00
9969;BME280;5025;48.890;9.278;2022-11-20T08:10:33;98297.19;;;6.11;86.06
9969;BME280;5025;48.890;9.278;2022-11-20T08:12:58;98300.06;;;6.09;86.08
9969;BME280;5025;48.890;9.278;2022-11-20T08:15:48;98303.56;;;6.10;85.95
9969;BME280;5025;48.890;9.278;2022-11-20T08:18:13;98299.84;;;6.11;86.08
9969;BME280;5025;48.890;9.278;2022-11-20T08:20:39;98306.88;;;6.12;86.02
9969;BME280;5025;48.890;9.278;2022-11-20T08:23:05;98307.91;;;6.11;85.95
9969;BME280;5025;48.890;9.278;2022-11-20T08:25:32;98302.13;;;6.14;86.13
9969;BME280;5025;48.890;9.278;2022-11-20T08:27:59;98307.25;;;6.16;86.05
9969;BME280;5025;48.890;9.278;2022-11-20T08:30:26;98306.03;;;6.18;86.08
9969;BME280;5025;48.890;9.278;2022-11-20T08:32:52;98308.50;;;6.20;85.96
9969;BME280;5025;48.890;9.278;2022-11-20T08:35:18;98310.97;;;6.21;86.03
9969;BME280;5025;48.890;9.278;2022-11-20T08:37:48;98310.13;;;6.21;85.98
9969;BME280;5025;48.890;9.278;2022-11-20T08:40:14;98309.31;;;6.20;86.06
9969;BME280;5025;48.890;9.278;2022-11-20T08:42:50;98308.88;;;6.23;86.12
9969;BME280;5025;48.890;9.278;2022-11-20T08:45:16;98314.25;;;6.23;86.30
9969;BME280;5025;48.890;9.278;2022-11-20T08:47:43;98312.81;;;6.27;86.27
9969;BME280;5025;48.890;9.278;2022-11-20T08:50:10;98318.53;;;6.31;86.24
9969;BME280;5025;48.890;9.278;2022-11-20T08:52:35;98311.31;;;6.32;86.24
9969;BME280;5025;48.890;9.278;2022-11-20T08:55:00;98321.63;;;6.35;86.10
9969;BME280;5025;48.890;9.278;2022-11-20T08:57:26;98311.31;;;6.32;86.27
9969;BME280;5025;48.890;9.278;2022-11-20T08:59:51;98321.06;;;6.26;86.28
9969;BME280;5025;48.890;9.278;2022-11-20T09:02:16;98316.88;;;6.30;86.57
9969;BME280;5025;48.890;9.278;2022-11-20T09:04:41;98326.38;;;6.33;86.47
9969;BME280;5025;48.890;9.278;2022-11-20T09:07:07;98323.91;;;6.31;86.32
9969;BME280;5025;48.890;9.278;2022-11-20T09:09:32;98323.69;;;6.33;86.75
9969;BME280;5025;48.890;9.278;2022-11-20T09:11:58;98323.50;;;6.34;86.94
9969;BME280;5025;48.890;9.278;2022-11-20T09:14:23;98337.28;;;6.38;87.05
9969;BME280;5025;48.890;9.278;2022-11-20T09:16:54;98327.78;;;6.42;86.64
9969;BME280;5025;48.890;9.278;2022-11-20T09:19:19;98333.75;;;6.44;86.38
9969;BME280;5025;48.890;9.278;2022-11-20T09:21:45;98332.13;;;6.43;86.42
9969;BME280;5025;48.890;9.278;2022-11-20T09:24:10;98329.22;;;6.44;86.51
9969;BME280;5025;48.890;9.278;2022-11-20T09:26:35;98336.84;;;6.41;86.53
9969;BME280;5025;48.890;9.278;2022-11-20T09:29:01;98329.25;;;6.38;86.88
9969;BME280;5025;48.890;9.278;2022-11-20T09:31:26;98338.56;;;6.35;86.77
9969;BME280;5025;48.890;9.278;2022-11-20T09:33:51;98324.94;;;6.37;86.60
9969;BME280;5025;48.890;9.278;2022-11-20T09:36:17;98348.81;;;6.45;86.13
9969;BME280;5025;48.890;9.278;2022-11-20T09:38:46;98341.78;;;6.44;85.52
9969;BME280;5025;48.890;9.278;2022-11-20T09:41:21;98344.69;;;6.42;85.45
9969;BME280;5025;48.890;9.278;2022-11-20T09:52:57;98352.94;;;6.48;85.15
9969;BME280;5025;48.890;9.278;2022-11-20T09:55:29;98347.97;;;6.51;85.12
9969;BME280;5025;48.890;9.278;2022-11-20T09:57:56;98355.41;;;6.49;84.91
9969;BME280;5025;48.890;9.278;2022-11-20T10:00:24;98353.34;;;6.51;85.24
9969;BME280;5025;48.890;9.278;2022-11-20T10:03:01;98355.59;;;6.54;85.15
9969;BME280;5025;48.890;9.278;2022-11-20T10:05:33;98348.78;;;6.58;85.10
9969;BME280;5025;48.890;9.278;2022-11-20T10:08:41;98351.22;;;6.60;85.05
9969;BME280;5025;48.890;9.278;2022-11-20T10:14:18;98349.59;;;6.59;84.68
9969;BME280;5025;48.890;9.278;2022-11-20T10:17:03;98354.72;;;6.60;85.15
9969;BME280;5025;48.890;9.278;2022-11-20T10:27:56;98362.41;;;6.50;86.71
9969;BME280;5025;48.890;9.278;2022-11-20T10:30:29;98360.78;;;6.42;87.28
9969;BME280;5025;48.890;9.278;2022-11-20T10:33:04;98364.94;;;6.38;87.68
9969;BME280;5025;48.890;9.278;2022-11-20T10:35:35;98365.16;;;6.37;88.06
9969;BME280;5025;48.890;9.278;2022-11-20T10:38:09;98371.72;;;6.41;87.81
9969;BME280;5025;48.890;9.278;2022-11-20T10:40:42;98367.41;;;6.33;88.51
9969;BME280;5025;48.890;9.278;2022-11-20T10:43:12;98363.94;;;6.33;89.03
9969;BME280;5025;48.890;9.278;2022-11-20T10:45:56;98361.25;;;6.33;88.97
9969;BME280;5025;48.890;9.278;2022-11-20T10:48:28;98356.69;;;6.40;89.04
9969;BME280;5025;48.890;9.278;2022-11-20T10:56:50;98353.38;;;6.44;88.98
9969;BME280;5025;48.890;9.278;2022-11-20T10:59:32;98363.72;;;6.34;88.71
9969;BME280;5025;48.890;9.278;2022-11-20T11:02:00;98350.56;;;6.19;88.99
9969;BME280;5025;48.890;9.278;2022-11-20T11:06:58;98354.06;;;6.13;90.17
9969;BME280;5025;48.890;9.278;2022-11-20T11:09:34;98354.69;;;6.08;90.91
9969;BME280;5025;48.890;9.278;2022-11-20T11:12:00;98352.44;;;6.12;90.95
9969;BME280;5025;48.890;9.278;2022-11-20T11:14:26;98342.34;;;6.07;91.46
9969;BME280;5025;48.890;9.278;2022-11-20T11:16:56;98347.94;;;6.06;91.78
9969;BME280;5025;48.890;9.278;2022-11-20T11:19:22;98343.38;;;6.06;91.97
9969;BME280;5025;48.890;9.278;2022-11-20T11:21:51;98339.25;;;6.10;92.09
9969;BME280;5025;48.890;9.278;2022-11-20T11:24:28;98329.94;;;6.13;92.35
9969;BME280;5025;48.890;9.278;2022-11-20T11:27:03;98317.13;;;6.22;92.38
9969;BME280;5025;48.890;9.278;2022-11-20T11:29:35;98310.50;;;6.31;92.13
9969;BME280;5025;48.890;9.278;2022-11-20T11:32:06;98306.53;;;6.40;91.70
9969;BME280;5025;48.890;9.278;2022-11-20T11:34:32;98302.41;;;6.44;91.56
9969;BME280;5025;48.890;9.278;2022-11-20T11:36:58;98308.31;;;6.53;91.77
9969;BME280;5025;48.890;9.278;2022-11-20T11:39:25;98314.66;;;6.66;91.75
9969;BME280;5025;48.890;9.278;2022-11-20T11:41:51;98304.84;;;6.85;91.56
9969;BME280;5025;48.890;9.278;2022-11-20T11:47:02;98297.59;;;7.17;91.63
9969;BME280;5025;48.890;9.278;2022-11-20T11:49:28;98294.06;;;7.42;91.51
9969;BME280;5025;48.890;9.278;2022-11-20T11:52:02;98287.56;;;7.56;90.59
9969;BME280;5025;48.890;9.278;2022-11-20T12:00:12;98275.94;;;7.62;85.49
9969;BME280;5025;48.890;9.278;2022-11-20T12:05:30;98269.22;;;7.71;79.93
9969;BME280;5025;48.890;9.278;2022-11-20T12:08:15;98294.53;;;7.82;78.90
9969;BME280;5025;48.890;9.278;2022-11-20T12:13:48;98274.66;;;7.83;76.16
9969;BME280;5025;48.890;9.278;2022-11-20T12:16:18;98280.56;;;7.74;75.22
9969;BME280;5025;48.890;9.278;2022-11-20T12:18:47;98280.91;;;7.77;74.76
9969;BME280;5025;48.890;9.278;2022-11-20T12:23:52;98266.75;;;7.88;74.19
9969;BME280;5025;48.890;9.278;2022-11-20T12:32:14;98257.16;;;8.30;73.21
9969;BME280;5025;48.890;9.278;2022-11-20T12:34:56;98262.88;;;8.52;72.67
9969;BME280;5025;48.890;9.278;2022-11-20T12:37:33;98251.81;;;8.60;69.48
9969;BME280;5025;48.890;9.278;2022-11-20T12:40:12;98249.59;;;8.69;67.67
9969;BME280;5025;48.890;9.278;2022-11-20T12:56:57;98239.03;;;9.21;63.47
9969;BME280;5025;48.890;9.278;2022-11-20T13:05:21;98252.06;;;9.12;60.62
9969;BME280;5025;48.890;9.278;2022-11-20T13:07:51;98249.81;;;9.33;59.97
9969;BME280;5025;48.890;9.278;2022-11-20T13:10:31;98244.19;;;9.46;59.79
9969;BME280;5025;48.890;9.278;2022-11-20T13:15:56;98255.78;;;9.59;58.90
9969;BME280;5025;48.890;9.278;2022-11-20T13:18:25;98259.69;;;9.39;58.98
9969;BME280;5025;48.890;9.278;2022-11-20T13:20:51;98247.69;;;9.23;58.42
9969;BME280;5025;48.890;9.278;2022-11-20T13:23:24;98250.59;;;8.98;59.52
9969;BME280;5025;48.890;9.278;2022-11-20T13:25:50;98240.38;;;8.76;59.15
9969;BME280;5025;48.890;9.278;2022-11-20T13:30:51;98251.75;;;8.78;59.60
9969;BME280;5025;48.890;9.278;2022-11-20T13:33:29;98244.31;;;8.62;59.68
9969;BME280;5025;48.890;9.278;2022-11-20T13:35:58;98229.59;;;8.76;59.71
9969;BME280;5025;48.890;9.278;2022-11-20T13:38:24;98231.53;;;8.88;59.39
9969;BME280;5025;48.890;9.278;2022-11-20T13:43:36;98225.69;;;9.38;57.66
9969;BME280;5025;48.890;9.278;2022-11-20T13:46:05;98218.19;;;9.40;57.34
9969;BME280;5025;48.890;9.278;2022-11-20T13:48:33;98222.16;;;9.49;57.26
9969;BME280;5025;48.890;9.278;2022-11-20T13:51:07;98216.06;;;9.54;57.05
9969;BME280;5025;48.890;9.278;2022-11-20T13:53:48;98218.19;;;9.64;56.60
9969;BME280;5025;48.890;9.278;2022-11-20T13:56:48;98217.47;;;9.45;57.20
9969;BME280;5025;48.890;9.278;2022-11-20T13:59:36;98223.94;;;9.20;57.33
9969;BME280;5025;48.890;9.278;2022-11-20T14:02:11;98248.84;;;8.92;57.86
9969;BME280;5025;48.890;9.278;2022-11-20T14:04:46;98236.28;;;8.74;57.63
9969;BME280;5025;48.890;9.278;2022-11-20T14:07:12;98218.19;;;8.51;58.80
9969;BME280;5025;48.890;9.278;2022-11-20T14:09:38;98227.38;;;8.43;59.33
9969;BME280;5025;48.890;9.278;2022-11-20T14:12:12;98224.69;;;8.43;59.89
9969;BME280;5025;48.890;9.278;2022-11-20T14:14:48;98230.16;;;8.67;59.74
9969;BME280;5025;48.890;9.278;2022-11-20T14:17:24;98217.28;;;8.69;59.17
9969;BME280;5025;48.890;9.278;2022-11-20T14:19:56;98222.69;;;8.69;59.73
9969;BME280;5025;48.890;9.278;2022-11-20T14:22:27;98221.59;;;8.58;59.80
9969;BME280;5025;48.890;9.278;2022-11-20T14:27:29;98223.81;;;8.31;60.81
9969;BME280;5025;48.890;9.278;2022-11-20T14:30:00;98210.00;;;8.27;61.04
9969;BME280;5025;48.890;9.278;2022-11-20T14:32:28;98221.38;;;8.29;61.42
9969;BME280;5025;48.890;9.278;2022-11-20T14:34:57;98231.50;;;8.27;62.03
9969;BME280;5025;48.890;9.278;2022-11-20T14:37:26;98222.84;;;8.25;62.36
9969;BME280;5025;48.890;9.278;2022-11-20T14:39:55;98225.25;;;8.15;62.84
9969;BME280;5025;48.890;9.278;2022-11-20T14:44:48;98218.53;;;8.05;63.40
9969;BME280;5025;48.890;9.278;2022-11-20T14:47:26;98211.38;;;7.99;63.50
9969;BME280;5025;48.890;9.278;2022-11-20T14:49:53;98208.91;;;7.98;63.77
9969;BME280;5025;48.890;9.278;2022-11-20T14:52:24;98205.06;;;7.94;63.83
9969;BME280;5025;48.890;9.278;2022-11-20T14:54:52;98202.69;;;7.85;64.09
9969;BME280;5025;48.890;9.278;2022-11-20T14:59:46;98186.16;;;7.82;64.54
9969;BME280;5025;48.890;9.278;2022-11-20T15:02:12;98183.47;;;7.82;64.56
9969;BME280;5025;48.890;9.278;2022-11-20T15:04:48;98187.81;;;7.83;64.66
9969;BME280;5025;48.890;9.278;2022-11-20T15:07:27;98182.91;;;7.80;64.62
9969;BME280;5025;48.890;9.278;2022-11-20T15:12:25;98171.72;;;7.64;64.95